createdAt,value
2022-10-17T00:01:21.625Z,100.00
2022-10-17T00:03:47.779Z,100.00
2022-10-17T00:06:15.057Z,100.00
2022-10-17T00:08:42.497Z,100.00
2022-10-17T00:11:14.169Z,100.00
2022-10-17T00:13:41.971Z,100.00
2022-10-17T00:16:08.815Z,100.00
2022-10-17T00:18:34.902Z,100.00
2022-10-17T00:21:00.987Z,100.00
2022-10-17T00:23:30.572Z,100.00
2022-10-17T00:26:01.039Z,100.00
2022-10-17T00:28:27.200Z,100.00
2022-10-17T00:30:56.872Z,100.00
2022-10-17T00:33:22.973Z,100.00
2022-10-17T00:35:49.060Z,100.00
2022-10-17T00:38:15.156Z,100.00
2022-10-17T00:40:41.248Z,100.00
2022-10-17T00:43:16.810Z,100.00
2022-10-17T00:45:42.882Z,100.00
2022-10-17T00:48:12.459Z,100.00
2022-10-17T00:50:42.002Z,100.00
2022-10-17T00:53:09.466Z,100.00
2022-10-17T00:55:42.364Z,100.00
2022-10-17T00:58:08.630Z,100.00
2022-10-17T01:00:34.728Z,100.00
2022-10-17T01:03:00.837Z,100.00
2022-10-17T01:05:26.996Z,100.00
2022-10-17T01:07:55.016Z,100.00
2022-10-17T01:13:11.632Z,100.00
2022-10-17T01:15:44.306Z,100.00
2022-10-17T01:18:22.645Z,100.00
2022-10-17T01:21:13.144Z,100.00
2022-10-17T01:23:58.372Z,100.00
2022-10-17T01:26:51.939Z,100.00
2022-10-17T01:29:33.027Z,100.00
2022-10-17T01:32:03.814Z,100.00
2022-10-17T01:34:47.152Z,100.00
2022-10-17T01:37:21.475Z,100.00
2022-10-17T01:40:03.139Z,100.00
2022-10-17T01:42:48.633Z,100.00
2022-10-17T01:45:31.956Z,100.00
2022-10-17T01:48:05.862Z,100.00
2022-10-17T01:50:37.936Z,100.00
2022-10-17T01:53:14.691Z,100.00
2022-10-17T01:55:44.293Z,100.00
2022-10-17T01:58:15.063Z,100.00
2022-10-17T02:00:45.319Z,100.00
2022-10-17T02:03:18.222Z,100.00
2022-10-17T02:05:45.721Z,100.00
2022-10-17T02:08:12.420Z,100.00
2022-10-17T02:10:53.742Z,100.00
2022-10-17T02:13:35.102Z,100.00
2022-10-17T02:16:16.159Z,100.00
2022-10-17T02:19:08.816Z,100.00
2022-10-17T02:21:46.527Z,100.00
2022-10-17T02:24:37.478Z,100.00
2022-10-17T02:27:17.182Z,100.00
2022-10-17T02:29:57.326Z,100.00
2022-10-17T02:32:46.656Z,100.00
2022-10-17T02:35:16.023Z,100.00
2022-10-17T02:37:45.432Z,100.00
2022-10-17T02:40:14.525Z,100.00
2022-10-17T02:42:43.871Z,100.00
2022-10-17T02:45:10.724Z,100.00
2022-10-17T02:47:49.562Z,100.00
2022-10-17T02:50:15.757Z,100.00
2022-10-17T02:52:58.055Z,100.00
2022-10-17T02:55:33.509Z,100.00
2022-10-17T02:58:02.667Z,100.00
2022-10-17T03:00:29.852Z,100.00
2022-10-17T03:02:56.028Z,100.00
2022-10-17T03:05:24.906Z,100.00
2022-10-17T03:07:51.620Z,100.00
2022-10-17T03:10:18.548Z,100.00
2022-10-17T03:12:44.765Z,100.00
2022-10-17T03:15:12.509Z,100.00
2022-10-17T03:17:39.844Z,100.00
2022-10-17T03:20:07.750Z,100.00
2022-10-17T03:22:34.103Z,100.00
2022-10-17T03:25:02.365Z,100.00
2022-10-17T03:27:28.754Z,100.00
2022-10-17T03:29:55.592Z,100.00
2022-10-17T03:32:21.677Z,100.00
2022-10-17T03:34:48.022Z,100.00
2022-10-17T03:37:14.101Z,100.00
2022-10-17T03:39:41.356Z,100.00
2022-10-17T03:42:07.512Z,100.00
2022-10-17T03:44:33.634Z,100.00
2022-10-17T03:46:59.744Z,100.00
2022-10-17T03:49:25.870Z,100.00
2022-10-17T03:51:52.666Z,100.00
2022-10-17T03:54:18.956Z,100.00
2022-10-17T03:56:45.079Z,100.00
2022-10-17T03:59:15.302Z,100.00
2022-10-17T04:01:44.897Z,100.00
2022-10-17T04:04:12.187Z,100.00
2022-10-17T04:06:38.664Z,100.00
2022-10-17T04:09:07.119Z,100.00
2022-10-17T04:11:40.919Z,100.00
2022-10-17T04:14:07.454Z,100.00
2022-10-17T04:16:33.576Z,100.00
2022-10-17T04:19:04.186Z,100.00
2022-10-17T04:21:36.120Z,100.00
2022-10-17T04:24:05.993Z,100.00
2022-10-17T04:26:56.932Z,100.00
2022-10-17T04:29:26.970Z,100.00
2022-10-17T04:32:00.399Z,100.00
2022-10-17T04:34:34.911Z,100.00
2022-10-17T04:37:01.033Z,100.00
2022-10-17T04:39:27.343Z,100.00
2022-10-17T04:41:55.614Z,100.00
2022-10-17T04:44:21.972Z,100.00
2022-10-17T04:46:51.076Z,100.00
2022-10-17T04:49:17.225Z,100.00
2022-10-17T04:51:46.612Z,100.00
2022-10-17T04:54:22.274Z,100.00
2022-10-17T04:56:54.322Z,100.00
2022-10-17T04:59:20.531Z,100.00
2022-10-17T05:01:52.334Z,100.00
2022-10-17T05:04:22.364Z,100.00
2022-10-17T05:06:50.908Z,100.00
2022-10-17T05:09:33.222Z,100.00
2022-10-17T05:11:59.756Z,100.00
2022-10-17T05:14:26.698Z,100.00
2022-10-17T05:16:52.805Z,100.00
2022-10-17T05:19:19.308Z,100.00
2022-10-17T05:21:48.639Z,100.00
2022-10-17T05:24:15.261Z,100.00
2022-10-17T05:26:41.354Z,100.00
2022-10-17T05:29:08.227Z,100.00
2022-10-17T05:31:39.140Z,100.00
2022-10-17T05:34:09.066Z,100.00
2022-10-17T05:36:37.880Z,100.00
2022-10-17T05:39:05.187Z,100.00
2022-10-17T05:41:33.203Z,100.00
2022-10-17T05:44:01.800Z,100.00
2022-10-17T05:46:39.573Z,100.00
2022-10-17T05:49:19.411Z,100.00
2022-10-17T05:51:52.196Z,100.00
2022-10-17T05:54:18.450Z,100.00
2022-10-17T05:56:45.054Z,100.00
2022-10-17T05:59:11.275Z,100.00
2022-10-17T06:02:12.494Z,100.00
2022-10-17T06:04:38.709Z,100.00
2022-10-17T06:07:05.734Z,100.00
2022-10-17T06:09:32.972Z,100.00
2022-10-17T06:11:59.130Z,100.00
2022-10-17T06:14:25.246Z,100.00
2022-10-17T06:16:55.484Z,100.00
2022-10-17T06:19:21.611Z,100.00
2022-10-17T06:21:47.694Z,100.00
2022-10-17T06:24:18.996Z,100.00
2022-10-17T06:26:47.003Z,100.00
2022-10-17T06:29:15.000Z,100.00
2022-10-17T06:31:45.747Z,100.00
2022-10-17T06:34:11.843Z,100.00
2022-10-17T06:36:39.404Z,100.00
2022-10-17T06:39:05.990Z,100.00
2022-10-17T06:41:44.548Z,100.00
2022-10-17T06:44:11.658Z,100.00
2022-10-17T06:46:54.354Z,100.00
2022-10-17T06:49:21.694Z,100.00
2022-10-17T06:51:56.176Z,100.00
2022-10-17T06:54:30.507Z,100.00
2022-10-17T06:57:16.955Z,100.00
2022-10-17T07:00:06.515Z,100.00
2022-10-17T07:02:43.902Z,100.00
2022-10-17T07:05:10.139Z,100.00
2022-10-17T07:07:40.017Z,100.00
2022-10-17T07:10:09.444Z,100.00
2022-10-17T07:12:36.755Z,100.00
2022-10-17T07:15:05.009Z,100.00
2022-10-17T07:17:31.936Z,100.00
2022-10-17T07:19:58.313Z,100.00
2022-10-17T07:22:25.060Z,100.00
2022-10-17T07:24:54.523Z,100.00
2022-10-17T07:27:27.546Z,100.00
2022-10-17T07:29:53.928Z,100.00
2022-10-17T07:32:32.104Z,100.00
2022-10-17T07:34:59.025Z,100.00
2022-10-17T07:37:25.306Z,100.00
2022-10-17T07:39:56.563Z,100.00
2022-10-17T07:42:23.176Z,100.00
2022-10-17T07:44:49.862Z,100.00
2022-10-17T07:47:16.025Z,100.00
2022-10-17T07:49:44.206Z,100.00
2022-10-17T07:52:12.033Z,100.00
2022-10-17T07:54:38.396Z,100.00
2022-10-17T07:57:04.614Z,100.00
2022-10-17T07:59:30.695Z,100.00
2022-10-17T08:01:56.970Z,100.00
2022-10-17T08:04:23.722Z,100.00
2022-10-17T08:06:53.387Z,100.00
2022-10-17T08:09:22.607Z,100.00
2022-10-17T08:11:49.131Z,100.00
2022-10-17T08:14:16.832Z,100.00
2022-10-17T08:16:43.626Z,100.00
2022-10-17T08:19:11.517Z,100.00
2022-10-17T08:21:38.738Z,100.00
2022-10-17T08:24:05.156Z,100.00
2022-10-17T08:26:31.249Z,100.00
2022-10-17T08:28:57.690Z,100.00
2022-10-17T08:31:23.831Z,100.00
2022-10-17T08:33:50.430Z,100.00
2022-10-17T08:36:19.157Z,100.00
2022-10-17T08:38:47.980Z,100.00
2022-10-17T08:42:08.834Z,100.00
2022-10-17T08:44:48.166Z,100.00
2022-10-17T08:47:21.058Z,100.00
2022-10-17T08:49:54.024Z,100.00
2022-10-17T08:52:41.618Z,100.00
2022-10-17T08:57:48.460Z,99.94
2022-10-17T09:00:21.307Z,99.28
2022-10-17T09:03:09.831Z,98.83
2022-10-17T09:05:49.366Z,97.70
2022-10-17T09:08:53.055Z,97.05
2022-10-17T09:11:53.283Z,95.83
2022-10-17T09:14:41.143Z,94.71
2022-10-17T09:17:21.551Z,94.85
2022-10-17T09:20:03.264Z,92.96
2022-10-17T09:22:37.647Z,92.27
2022-10-17T09:25:10.813Z,92.68
2022-10-17T09:27:42.864Z,92.39
2022-10-17T09:30:44.158Z,92.07
2022-10-17T09:33:34.765Z,91.40
2022-10-17T09:36:13.193Z,90.23
2022-10-17T09:38:43.082Z,88.36
2022-10-17T09:41:42.987Z,88.18
2022-10-17T09:44:22.889Z,86.54
2022-10-17T13:59:22.870Z,62.79
2022-10-17T14:01:49.983Z,61.85
2022-10-17T14:04:20.112Z,62.31
2022-10-17T14:06:51.108Z,61.59
2022-10-17T14:09:28.546Z,61.06
2022-10-17T14:12:02.373Z,61.67
2022-10-17T14:14:32.175Z,61.41
2022-10-17T14:17:13.555Z,61.24
2022-10-17T14:19:39.842Z,60.87
2022-10-17T14:22:36.275Z,60.37
2022-10-17T14:25:03.934Z,60.63
2022-10-17T14:27:36.651Z,60.80
2022-10-17T14:33:22.008Z,60.54
2022-10-17T14:35:56.365Z,58.88
2022-10-17T14:38:23.481Z,58.90
2022-10-17T14:41:08.729Z,59.40
2022-10-17T14:43:42.703Z,59.40
2022-10-17T14:46:15.819Z,59.77
2022-10-17T14:48:42.362Z,58.72
2022-10-17T14:51:17.375Z,59.14
2022-10-17T14:53:44.930Z,59.35
2022-10-17T14:56:25.853Z,59.27
2022-10-17T14:58:52.249Z,59.69
2022-10-17T15:01:19.063Z,60.04
2022-10-17T15:03:45.523Z,60.24
2022-10-17T15:06:20.587Z,60.41
2022-10-17T15:08:46.727Z,61.26
2022-10-17T15:11:12.844Z,62.08
2022-10-17T15:13:42.260Z,62.73
2022-10-17T15:16:34.970Z,63.56
2022-10-17T15:19:01.174Z,64.25
2022-10-17T15:21:39.298Z,64.79
2022-10-17T15:24:06.854Z,65.55
2022-10-17T15:26:34.300Z,66.57
2022-10-17T15:29:00.846Z,67.03
2022-10-17T15:31:29.258Z,67.51
2022-10-17T15:33:55.356Z,68.73
2022-10-17T15:36:28.963Z,69.04
2022-10-17T15:39:00.703Z,69.86
2022-10-17T15:41:29.026Z,70.68
2022-10-17T15:43:55.271Z,70.88
2022-10-17T15:46:25.273Z,71.70
2022-10-17T15:48:51.752Z,72.24
2022-10-17T15:51:18.400Z,72.98
2022-10-17T15:53:44.611Z,73.89
2022-10-17T15:56:22.954Z,74.44
2022-10-17T15:58:49.474Z,74.53
2022-10-17T16:01:24.402Z,75.06
2022-10-17T16:03:50.910Z,75.93
2022-10-17T16:06:21.126Z,76.38
2022-10-17T16:08:48.352Z,76.95
2022-10-17T16:11:26.412Z,77.47
2022-10-17T16:13:55.066Z,77.99
2022-10-17T16:16:22.548Z,78.95
2022-10-17T16:18:49.177Z,79.56
2022-10-17T16:21:16.765Z,81.10
2022-10-17T16:23:43.753Z,81.34
2022-10-17T16:26:10.057Z,81.77
2022-10-17T16:28:36.338Z,82.11
2022-10-17T16:31:02.585Z,83.18
2022-10-17T16:33:28.676Z,82.77
2022-10-17T16:35:54.787Z,83.47
2022-10-17T16:38:20.879Z,83.59
2022-10-17T16:40:46.968Z,85.50
2022-10-17T16:43:13.303Z,86.19
2022-10-17T16:45:40.012Z,86.47
2022-10-17T16:48:06.472Z,86.12
2022-10-17T16:50:35.619Z,86.78
2022-10-17T16:53:03.961Z,87.43
2022-10-17T16:55:30.052Z,87.53
2022-10-17T16:57:56.149Z,88.29
2022-10-17T17:00:22.320Z,88.66
2022-10-17T17:02:48.753Z,89.01
2022-10-17T17:05:15.576Z,89.51
2022-10-17T17:07:41.688Z,89.52
2022-10-17T17:10:08.176Z,90.51
2022-10-17T17:12:35.394Z,90.82
2022-10-17T17:15:02.033Z,90.73
2022-10-17T17:17:44.526Z,91.59
2022-10-17T17:20:14.350Z,91.40
2022-10-17T17:22:40.448Z,91.39
2022-10-17T17:25:06.775Z,91.96
2022-10-17T17:27:33.316Z,91.73
2022-10-17T17:29:59.543Z,92.22
2022-10-17T17:32:25.637Z,91.83
2022-10-17T17:34:51.745Z,92.21
2022-10-17T17:37:18.005Z,92.75
2022-10-17T17:39:44.314Z,92.83
2022-10-17T17:42:10.406Z,93.25
2022-10-17T17:44:36.513Z,93.89
2022-10-17T17:47:02.661Z,93.91
2022-10-17T17:49:28.761Z,93.54
2022-10-17T17:51:54.897Z,93.73
2022-10-17T17:54:21.005Z,93.37
2022-10-17T17:56:47.195Z,93.97
2022-10-17T17:59:13.688Z,93.81
2022-10-17T18:01:40.518Z,93.97
2022-10-17T18:04:08.935Z,94.79
2022-10-17T18:06:36.102Z,95.50
2022-10-17T18:09:02.284Z,96.00
2022-10-17T18:11:28.718Z,96.69
2022-10-17T18:13:59.855Z,96.48
2022-10-17T18:16:27.865Z,97.06
2022-10-17T18:18:54.124Z,97.62
2022-10-17T18:21:20.492Z,96.99
2022-10-17T18:23:48.068Z,97.90
2022-10-17T18:26:14.714Z,97.38
2022-10-17T18:31:36.196Z,98.93
2022-10-17T18:34:03.787Z,99.57
2022-10-17T18:36:31.231Z,100.00
2022-10-17T18:38:58.859Z,100.00
2022-10-17T18:41:26.797Z,100.00
2022-10-17T18:43:54.778Z,100.00
2022-10-17T18:46:25.919Z,100.00
2022-10-17T18:48:52.764Z,100.00
2022-10-17T18:51:21.440Z,100.00
2022-10-17T18:53:51.540Z,100.00
2022-10-17T18:56:19.028Z,100.00
2022-10-17T18:58:45.955Z,100.00
2022-10-17T19:01:15.621Z,100.00
2022-10-17T19:03:43.170Z,100.00
2022-10-17T19:06:11.325Z,100.00
2022-10-17T19:08:38.652Z,100.00
2022-10-17T19:11:10.651Z,100.00
2022-10-17T19:13:37.510Z,100.00
2022-10-17T19:16:08.680Z,100.00
2022-10-17T19:18:35.971Z,100.00
2022-10-17T19:21:08.054Z,100.00
2022-10-17T19:23:37.540Z,100.00
2022-10-17T19:26:05.687Z,100.00
2022-10-17T19:28:32.832Z,100.00
2022-10-17T19:30:59.020Z,100.00
2022-10-17T19:33:25.290Z,100.00
2022-10-17T19:35:56.319Z,100.00
2022-10-17T19:38:22.406Z,100.00
2022-10-17T19:40:48.599Z,100.00
2022-10-17T19:43:14.709Z,100.00
2022-10-17T19:45:40.814Z,100.00
2022-10-17T19:48:06.899Z,100.00
2022-10-17T19:50:34.148Z,100.00
2022-10-17T19:53:02.082Z,100.00
2022-10-17T19:55:28.285Z,100.00
2022-10-17T19:58:02.043Z,100.00
2022-10-17T20:00:28.423Z,100.00
2022-10-17T20:02:54.946Z,100.00
2022-10-17T20:05:23.703Z,100.00
2022-10-17T20:07:52.128Z,100.00
2022-10-17T20:10:19.003Z,100.00
2022-10-17T20:12:45.093Z,100.00
2022-10-17T20:15:11.229Z,100.00
2022-10-17T20:17:37.326Z,100.00
2022-10-17T20:20:08.579Z,100.00
2022-10-17T20:22:35.051Z,100.00
2022-10-17T20:25:01.146Z,100.00
2022-10-17T20:27:28.232Z,100.00
2022-10-17T20:29:54.341Z,100.00
2022-10-17T20:32:20.432Z,100.00
2022-10-17T20:34:46.529Z,100.00
2022-10-17T20:37:12.639Z,100.00
2022-10-17T20:39:39.104Z,100.00
2022-10-17T20:42:05.196Z,100.00
2022-10-17T20:44:31.306Z,100.00
2022-10-17T20:47:02.180Z,100.00
2022-10-17T20:49:30.870Z,100.00
2022-10-17T20:51:57.114Z,100.00
2022-10-17T20:54:23.371Z,100.00
2022-10-17T20:56:49.940Z,100.00
2022-10-17T20:59:17.311Z,100.00
2022-10-17T21:01:45.177Z,100.00
2022-10-17T21:04:40.502Z,100.00
2022-10-17T21:06:57.873Z,100.00
2022-10-17T21:09:24.258Z,100.00
2022-10-17T21:11:54.293Z,100.00
2022-10-17T21:14:21.164Z,100.00
2022-10-17T21:16:47.950Z,100.00
2022-10-17T21:19:15.020Z,100.00
2022-10-17T21:21:43.509Z,100.00
2022-10-17T21:24:14.600Z,100.00
2022-10-17T21:26:42.536Z,100.00
2022-10-17T21:29:09.846Z,100.00
2022-10-17T21:31:37.866Z,100.00
2022-10-17T21:34:09.186Z,100.00
2022-10-17T21:36:35.563Z,100.00
2022-10-17T21:39:01.930Z,100.00
2022-10-17T21:41:29.511Z,100.00
2022-10-17T21:43:59.488Z,100.00
2022-10-17T21:46:26.267Z,100.00
2022-10-17T21:48:52.897Z,100.00
2022-10-17T21:51:21.892Z,100.00
2022-10-17T21:53:48.346Z,100.00
2022-10-17T21:56:17.449Z,100.00
2022-10-17T21:58:44.116Z,100.00
2022-10-17T22:01:13.436Z,100.00
2022-10-17T22:03:45.694Z,100.00
2022-10-17T22:09:01.903Z,100.00
2022-10-17T22:11:30.563Z,100.00
2022-10-17T22:14:02.126Z,100.00
2022-10-17T22:16:28.779Z,100.00
2022-10-17T22:19:00.515Z,100.00
2022-10-17T22:21:29.418Z,100.00
2022-10-17T22:24:01.973Z,100.00
2022-10-17T22:26:29.472Z,100.00
2022-10-17T22:28:56.326Z,100.00
2022-10-17T22:31:22.743Z,100.00
2022-10-17T22:33:49.222Z,100.00
2022-10-17T22:36:15.337Z,100.00
2022-10-17T22:38:41.526Z,100.00
2022-10-17T22:41:08.760Z,100.00
2022-10-17T22:43:35.111Z,100.00
2022-10-17T22:46:03.700Z,100.00
2022-10-17T22:48:30.218Z,100.00
2022-10-17T22:50:57.967Z,100.00
2022-10-17T22:53:26.250Z,100.00
2022-10-17T22:56:09.705Z,100.00
2022-10-17T22:58:36.344Z,100.00
2022-10-17T23:01:03.363Z,100.00
2022-10-17T23:03:30.597Z,100.00
2022-10-17T23:05:56.895Z,100.00
2022-10-17T23:08:23.931Z,100.00
2022-10-17T23:10:50.112Z,100.00
2022-10-17T23:13:16.739Z,100.00
2022-10-17T23:15:43.434Z,100.00
2022-10-17T23:18:10.099Z,100.00
2022-10-17T23:20:37.216Z,100.00
2022-10-17T23:23:03.590Z,100.00
2022-10-17T23:25:29.688Z,100.00
2022-10-17T23:27:55.789Z,100.00
2022-10-17T23:30:22.017Z,100.00
2022-10-17T23:32:48.107Z,100.00
2022-10-17T23:35:14.338Z,100.00
2022-10-17T23:37:40.436Z,100.00
2022-10-17T23:40:07.782Z,100.00
2022-10-17T23:42:33.866Z,100.00
2022-10-17T23:45:00.063Z,100.00
2022-10-17T23:47:26.243Z,100.00
2022-10-17T23:49:52.347Z,100.00
2022-10-17T23:52:18.483Z,100.00
2022-10-17T23:54:44.671Z,100.00
2022-10-17T23:57:10.829Z,100.00
2022-10-17T23:59:36.996Z,100.00
